createdAt,value
2023-04-08T00:01:18.762Z,101760.94
2023-04-08T00:03:46.340Z,101752.78
2023-04-08T00:06:13.360Z,101764.41
2023-04-08T00:08:40.314Z,101756.09
2023-04-08T00:11:07.205Z,101754.75
2023-04-08T00:13:34.096Z,101769.66
2023-04-08T00:16:01.215Z,101746.44
2023-04-08T00:18:28.291Z,101769.75
2023-04-08T00:20:57.068Z,101754.28
2023-04-08T00:23:23.992Z,101761.09
2023-04-08T00:25:51.181Z,101719.69
2023-04-08T00:28:18.111Z,101758.81
2023-04-08T00:30:45.739Z,101772.09
2023-04-08T00:33:12.797Z,101766.63
2023-04-08T00:35:39.799Z,101760.81
2023-04-08T00:38:08.084Z,101767.25
2023-04-08T00:40:35.544Z,101768.84
2023-04-08T00:43:02.723Z,101759.22
2023-04-08T00:45:29.734Z,101769.31
2023-04-08T00:47:57.111Z,101784.25
2023-04-08T00:50:24.565Z,101772.63
2023-04-08T00:52:51.507Z,101774.00
2023-04-08T00:55:18.437Z,101778.41
2023-04-08T00:57:46.658Z,101761.03
2023-04-08T01:00:15.160Z,101769.78
2023-04-08T01:03:17.447Z,101775.84
2023-04-08T01:05:51.650Z,101779.41
2023-04-08T01:08:18.878Z,101759.66
2023-04-08T01:10:52.154Z,101761.78
2023-04-08T01:13:21.034Z,101757.84
2023-04-08T01:15:50.622Z,101759.75
2023-04-08T01:18:18.684Z,101768.03
2023-04-08T01:20:46.809Z,101762.72
2023-04-08T01:23:30.077Z,101768.88
2023-04-08T01:25:58.380Z,101761.69
2023-04-08T01:28:31.357Z,101775.66
2023-04-08T01:31:01.681Z,101762.50
2023-04-08T01:33:29.720Z,101758.16
2023-04-08T01:35:59.107Z,101764.81
2023-04-08T01:38:27.192Z,101767.81
2023-04-08T01:40:55.779Z,101780.50
2023-04-08T01:43:24.504Z,101783.09
2023-04-08T01:45:54.496Z,101778.31
2023-04-08T01:48:21.637Z,101782.38
2023-04-08T01:50:51.270Z,101795.25
2023-04-08T01:53:18.562Z,101795.66
2023-04-08T01:55:46.113Z,101796.53
2023-04-08T01:58:20.577Z,101793.53
2023-04-08T02:00:47.975Z,101796.94
2023-04-08T02:03:19.502Z,101782.94
2023-04-08T02:05:46.845Z,101787.78
2023-04-08T02:08:13.748Z,101785.22
2023-04-08T02:10:40.806Z,101787.91
2023-04-08T02:13:08.328Z,101784.03
2023-04-08T02:15:38.360Z,101792.78
2023-04-08T02:18:17.203Z,101774.81
2023-04-08T02:20:51.438Z,101792.28
2023-04-08T02:23:24.657Z,101797.66
2023-04-08T02:25:54.429Z,101783.13
2023-04-08T02:28:21.660Z,101778.56
2023-04-08T02:30:52.753Z,101790.06
2023-04-08T02:33:22.742Z,101787.56
2023-04-08T02:35:54.701Z,101802.88
2023-04-08T02:38:24.116Z,101785.72
2023-04-08T02:40:51.398Z,101796.06
2023-04-08T02:43:18.393Z,101793.44
2023-04-08T02:45:45.959Z,101797.47
2023-04-08T02:48:13.097Z,101818.47
2023-04-08T02:50:41.131Z,101810.47
2023-04-08T02:53:09.488Z,101794.13
2023-04-08T02:55:39.535Z,101797.75
2023-04-08T02:58:06.434Z,101799.88
2023-04-08T03:00:33.387Z,101815.19
2023-04-08T03:03:01.058Z,101812.91
2023-04-08T03:05:28.071Z,101788.41
2023-04-08T03:07:55.053Z,101804.00
2023-04-08T03:10:21.953Z,101806.94
2023-04-08T03:12:48.904Z,101819.44
2023-04-08T03:15:15.944Z,101801.03
2023-04-08T03:17:43.034Z,101821.69
2023-04-08T03:20:11.045Z,101821.72
2023-04-08T03:22:37.999Z,101800.94
2023-04-08T03:25:05.363Z,101810.88
2023-04-08T03:27:32.463Z,101823.44
2023-04-08T03:29:59.403Z,101822.84
2023-04-08T03:32:26.451Z,101807.69
2023-04-08T03:34:53.583Z,101817.53
2023-04-08T03:37:20.635Z,101821.88
2023-04-08T03:39:47.542Z,101815.84
2023-04-08T03:42:14.558Z,101817.47
2023-04-08T03:44:43.853Z,101807.75
2023-04-08T03:47:10.769Z,101828.69
2023-04-08T03:49:37.652Z,101821.78
2023-04-08T03:52:04.636Z,101820.94
2023-04-08T03:54:31.541Z,101837.66
2023-04-08T03:56:58.461Z,101819.31
2023-04-08T03:59:25.808Z,101820.25
2023-04-08T04:01:53.670Z,101828.44
2023-04-08T04:04:21.275Z,101825.16
2023-04-08T04:06:48.618Z,101813.38
2023-04-08T04:09:16.725Z,101829.69
2023-04-08T04:11:43.642Z,101815.00
2023-04-08T04:14:10.583Z,101826.44
2023-04-08T04:16:38.076Z,101817.19
2023-04-08T04:19:05.117Z,101825.00
2023-04-08T04:21:32.338Z,101839.94
2023-04-08T04:23:59.237Z,101830.28
2023-04-08T04:26:26.132Z,101822.53
2023-04-08T04:28:53.250Z,101815.44
2023-04-08T04:31:28.304Z,101839.81
2023-04-08T04:33:55.595Z,101817.91
2023-04-08T04:36:22.594Z,101831.84
2023-04-08T04:38:51.098Z,101830.06
2023-04-08T04:41:18.293Z,101846.69
2023-04-08T04:43:45.723Z,101834.31
2023-04-08T04:46:12.625Z,101824.09
2023-04-08T04:48:39.603Z,101824.63
2023-04-08T04:51:07.524Z,101836.41
2023-04-08T04:53:34.580Z,101841.41
2023-04-08T04:56:01.888Z,101831.19
2023-04-08T04:58:29.675Z,101874.13
2023-04-08T05:00:56.961Z,101855.88
2023-04-08T05:03:24.107Z,101867.13
2023-04-08T05:05:53.004Z,101855.88
2023-04-08T05:08:21.160Z,101851.56
2023-04-08T05:10:50.178Z,101866.97
2023-04-08T05:13:18.259Z,101847.78
2023-04-08T05:15:47.834Z,101833.16
2023-04-08T05:18:15.022Z,101865.38
2023-04-08T05:20:42.096Z,101862.69
2023-04-08T05:23:09.142Z,101847.66
2023-04-08T05:25:36.355Z,101856.94
2023-04-08T05:28:03.925Z,101846.38
2023-04-08T05:30:30.983Z,101855.88
2023-04-08T05:33:00.033Z,101852.13
2023-04-08T05:35:28.431Z,101866.16
2023-04-08T05:37:55.400Z,101878.34
2023-04-08T05:40:22.376Z,101874.84
2023-04-08T05:42:49.326Z,101868.03
2023-04-08T05:45:16.362Z,101884.59
2023-04-08T05:47:43.363Z,101891.59
2023-04-08T05:50:11.397Z,101892.66
2023-04-08T05:52:45.032Z,101901.22
2023-04-08T05:55:13.420Z,101908.47
2023-04-08T05:57:41.127Z,101904.63
2023-04-08T06:00:10.689Z,101905.38
2023-04-08T06:02:38.348Z,101891.66
2023-04-08T06:05:06.582Z,101897.97
2023-04-08T06:07:34.087Z,101913.41
2023-04-08T06:10:01.041Z,101909.25
2023-04-08T06:12:27.978Z,101918.03
2023-04-08T06:14:56.251Z,101918.31
2023-04-08T06:17:23.277Z,101919.19
2023-04-08T06:19:50.384Z,101913.03
2023-04-08T06:22:17.285Z,101906.59
2023-04-08T06:24:44.225Z,101918.75
2023-04-08T06:27:11.193Z,101928.34
2023-04-08T06:29:38.085Z,101925.81
2023-04-08T06:32:06.197Z,101925.81
2023-04-08T06:34:33.270Z,101923.19
2023-04-08T06:37:00.305Z,101925.09
2023-04-08T06:39:27.241Z,101917.38
2023-04-08T06:41:54.725Z,101934.91
2023-04-08T06:44:44.002Z,101916.25
2023-04-08T06:47:11.020Z,101944.38
2023-04-08T06:49:38.031Z,101943.19
2023-04-08T06:52:08.249Z,101918.09
2023-04-08T06:54:35.171Z,101934.72
2023-04-08T06:57:12.372Z,101955.47
2023-04-08T06:59:39.506Z,101952.66
2023-04-08T07:02:06.714Z,101951.50
2023-04-08T07:04:33.721Z,101954.09
2023-04-08T07:07:00.771Z,101957.06
2023-04-08T07:09:28.326Z,101952.72
2023-04-08T07:11:55.796Z,101956.75
2023-04-08T07:14:22.747Z,101969.78
2023-04-08T07:16:49.674Z,101969.25
2023-04-08T07:19:16.595Z,101967.38
2023-04-08T07:21:43.644Z,101953.38
2023-04-08T07:24:10.617Z,101977.63
2023-04-08T07:26:38.749Z,101956.59
2023-04-08T07:29:05.697Z,101981.72
2023-04-08T07:31:35.752Z,101982.50
2023-04-08T07:34:02.599Z,101981.38
2023-04-08T07:36:29.505Z,101973.69
2023-04-08T07:38:56.384Z,101978.44
2023-04-08T07:41:23.273Z,101986.78
2023-04-08T07:43:50.363Z,101988.28
2023-04-08T07:46:17.289Z,101994.22
2023-04-08T07:48:44.215Z,101979.75
2023-04-08T07:51:11.745Z,101981.59
2023-04-08T07:53:40.449Z,101975.78
2023-04-08T07:56:16.221Z,101965.47
2023-04-08T07:58:43.725Z,101985.03
2023-04-08T08:01:24.462Z,101980.38
2023-04-08T08:03:53.408Z,101998.41
2023-04-08T08:06:22.137Z,101980.91
2023-04-08T08:08:49.131Z,101977.59
2023-04-08T08:11:16.208Z,101989.19
2023-04-08T08:13:43.287Z,101994.25
2023-04-08T08:16:11.705Z,101975.31
2023-04-08T08:18:40.563Z,101985.06
2023-04-08T08:21:08.123Z,102006.13
2023-04-08T08:23:35.114Z,101997.72
2023-04-08T08:26:04.118Z,101993.69
2023-04-08T08:28:31.161Z,101988.31
2023-04-08T08:30:58.759Z,101984.88
2023-04-08T08:33:26.219Z,102008.59
2023-04-08T08:35:57.950Z,102017.19
2023-04-08T08:38:25.359Z,101989.59
2023-04-08T08:41:00.248Z,101994.78
2023-04-08T08:43:29.111Z,102018.22
2023-04-08T08:45:56.409Z,102013.75
2023-04-08T08:48:23.514Z,102038.72
2023-04-08T08:50:50.717Z,102004.84
2023-04-08T08:53:17.745Z,102002.25
2023-04-08T08:56:13.760Z,102037.34
2023-04-08T08:58:31.982Z,102015.22
2023-04-08T09:00:58.920Z,102017.47
2023-04-08T09:03:28.515Z,102034.59
2023-04-08T09:05:57.873Z,102007.16
2023-04-08T09:08:43.384Z,102026.09
2023-04-08T09:11:14.388Z,102026.50
2023-04-08T09:13:41.916Z,102021.94
2023-04-08T09:16:15.041Z,102034.47
2023-04-08T09:18:45.976Z,102024.28
2023-04-08T09:21:15.021Z,102018.34
2023-04-08T09:23:48.033Z,102015.00
2023-04-08T09:26:24.280Z,102027.41
2023-04-08T09:29:24.176Z,102005.47
2023-04-08T09:32:01.235Z,102007.41
2023-04-08T09:34:29.861Z,102029.06
2023-04-08T09:36:56.910Z,102021.69
2023-04-08T09:39:24.111Z,102021.38
2023-04-08T09:41:52.609Z,102025.97
2023-04-08T09:44:21.960Z,102025.13
2023-04-08T09:47:09.106Z,102036.06
2023-04-08T09:49:46.823Z,102032.88
2023-04-08T09:52:46.002Z,102037.78
2023-04-08T09:55:22.232Z,102026.66
2023-04-08T09:58:02.321Z,102042.13
2023-04-08T10:00:44.105Z,102036.69
2023-04-08T10:03:28.321Z,102040.63
2023-04-08T10:05:59.792Z,102049.38
2023-04-08T10:08:27.725Z,102044.72
2023-04-08T10:10:56.340Z,102047.97
2023-04-08T10:13:24.375Z,102024.34
2023-04-08T10:15:51.297Z,102054.41
2023-04-08T10:18:22.140Z,102054.06
2023-04-08T10:20:49.396Z,102050.53
2023-04-08T10:23:21.092Z,102038.34
2023-04-08T10:25:49.335Z,102057.81
2023-04-08T10:28:18.764Z,102063.41
2023-04-08T10:30:56.176Z,102065.47
2023-04-08T10:33:40.077Z,102025.75
2023-04-08T10:36:09.771Z,102066.88
2023-04-08T10:38:37.114Z,102074.78
2023-04-08T10:41:04.285Z,102062.75
2023-04-08T10:43:35.187Z,102048.84
2023-04-08T10:46:03.007Z,102051.66
2023-04-08T10:48:29.975Z,102065.78
2023-04-08T10:51:04.783Z,102067.88
2023-04-08T10:53:36.980Z,102070.47
2023-04-08T10:56:15.464Z,102056.81
2023-04-08T10:58:56.314Z,102064.13
2023-04-08T11:01:23.687Z,102048.81
2023-04-08T11:03:51.379Z,102051.31
2023-04-08T11:06:19.478Z,102058.50
2023-04-08T11:08:47.263Z,102055.81
2023-04-08T11:11:15.491Z,102062.66
2023-04-08T11:13:52.730Z,102071.88
2023-04-08T11:16:22.687Z,102058.44
2023-04-08T11:18:51.374Z,102046.13
2023-04-08T11:21:18.462Z,102057.69
2023-04-08T11:23:45.552Z,102056.75
2023-04-08T11:26:13.795Z,102039.25
2023-04-08T11:28:40.761Z,102045.47
2023-04-08T11:31:09.114Z,102048.28
2023-04-08T11:33:36.367Z,102056.25
2023-04-08T11:36:08.524Z,102055.91
2023-04-08T11:38:41.510Z,102040.16
2023-04-08T11:41:09.425Z,102056.59
2023-04-08T11:43:36.693Z,102059.13
2023-04-08T11:46:13.090Z,102064.13
2023-04-08T11:48:40.100Z,102062.34
2023-04-08T11:51:12.518Z,102042.16
2023-04-08T11:53:39.522Z,102075.28
2023-04-08T11:56:20.368Z,102076.00
2023-04-08T11:58:47.752Z,102055.91
2023-04-08T12:01:14.907Z,102066.31
2023-04-08T12:04:00.509Z,102046.22
2023-04-08T12:06:28.911Z,102064.03
2023-04-08T12:08:57.466Z,102057.34
2023-04-08T12:11:24.727Z,102074.56
2023-04-08T12:13:52.621Z,102058.09
2023-04-08T12:16:20.635Z,102072.19
2023-04-08T12:18:47.894Z,102034.56
2023-04-08T12:21:14.868Z,102060.38
2023-04-08T12:23:41.841Z,102065.28
2023-04-08T12:26:08.880Z,102072.06
2023-04-08T12:28:36.332Z,102061.09
2023-04-08T12:31:03.821Z,102049.63
2023-04-08T12:33:31.811Z,102078.25
2023-04-08T12:35:59.354Z,102079.69
2023-04-08T12:38:27.075Z,102058.44
2023-04-08T12:40:55.000Z,102079.81
2023-04-08T12:43:23.665Z,102063.41
2023-04-08T12:45:51.739Z,102070.72
2023-04-08T12:48:18.903Z,102082.13
2023-04-08T12:50:46.059Z,102066.78
2023-04-08T12:53:13.078Z,102052.06
2023-04-08T12:55:40.170Z,102066.94
2023-04-08T12:58:07.311Z,102075.00
2023-04-08T13:00:34.369Z,102066.13
2023-04-08T13:03:01.873Z,102075.16
2023-04-08T13:05:40.171Z,102083.47
2023-04-08T13:08:09.430Z,102092.50
2023-04-08T13:10:36.407Z,102087.00
2023-04-08T13:13:03.697Z,102084.78
2023-04-08T13:15:30.857Z,102100.06
2023-04-08T13:17:57.770Z,102070.50
2023-04-08T13:20:26.239Z,102087.59
2023-04-08T13:22:53.725Z,102092.19
2023-04-08T13:25:21.118Z,102082.44
2023-04-08T13:27:48.183Z,102084.28
2023-04-08T13:30:15.519Z,102078.44
2023-04-08T13:32:42.554Z,102075.41
2023-04-08T13:35:09.784Z,102088.53
2023-04-08T13:37:36.984Z,102074.78
2023-04-08T13:40:05.215Z,102083.50
2023-04-08T13:42:32.849Z,102057.47
2023-04-08T13:45:00.184Z,102089.91
2023-04-08T13:47:28.954Z,102090.97
2023-04-08T13:49:55.885Z,102083.13
2023-04-08T13:52:22.823Z,102075.53
2023-04-08T13:54:49.772Z,102059.38
2023-04-08T13:57:16.706Z,102063.72
2023-04-08T13:59:44.837Z,102068.97
2023-04-08T14:02:12.761Z,102063.25
2023-04-08T14:04:40.001Z,102055.97
2023-04-08T14:07:07.192Z,102069.31
2023-04-08T14:09:34.118Z,102061.44
2023-04-08T14:12:01.073Z,102077.66
2023-04-08T14:14:28.034Z,102049.66
2023-04-08T14:16:55.236Z,102056.22
2023-04-08T14:19:22.243Z,102070.56
2023-04-08T14:21:49.289Z,102056.56
2023-04-08T14:24:16.462Z,102071.53
2023-04-08T14:26:43.494Z,102070.22
2023-04-08T14:29:10.538Z,102064.69
2023-04-08T14:31:37.459Z,102046.09
2023-04-08T14:34:04.985Z,102062.19
2023-04-08T14:36:32.869Z,102070.00
2023-04-08T14:39:00.218Z,102063.97
2023-04-08T14:41:27.339Z,102064.53
2023-04-08T14:43:54.375Z,102038.78
2023-04-08T14:46:21.832Z,102061.66
2023-04-08T14:48:49.300Z,102032.28
2023-04-08T14:51:16.435Z,102065.38
2023-04-08T14:53:43.389Z,102057.41
2023-04-08T14:56:10.594Z,102062.34
2023-04-08T14:58:40.409Z,102030.44
2023-04-08T15:01:07.991Z,102022.47
2023-04-08T15:03:35.122Z,102043.69
2023-04-08T15:06:02.646Z,102033.53
2023-04-08T15:08:29.554Z,102054.44
2023-04-08T15:10:57.050Z,102054.00
2023-04-08T15:13:24.051Z,102054.88
2023-04-08T15:15:51.708Z,102054.00
2023-04-08T15:18:18.741Z,102059.59
2023-04-08T15:20:46.036Z,102030.78
2023-04-08T15:23:13.135Z,102055.84
2023-04-08T15:25:40.061Z,102032.38
2023-04-08T15:28:07.075Z,102043.91
2023-04-08T15:30:35.575Z,102033.34
2023-04-08T15:33:05.871Z,102032.38
2023-04-08T15:35:33.502Z,102041.31
2023-04-08T15:38:00.823Z,102037.69
2023-04-08T15:40:28.094Z,102066.16
2023-04-08T15:42:56.041Z,102041.59
2023-04-08T15:45:23.064Z,102055.31
2023-04-08T15:47:50.029Z,102060.47
2023-04-08T15:50:17.591Z,102055.47
2023-04-08T15:52:44.947Z,102072.69
2023-04-08T15:55:12.014Z,102062.88
2023-04-08T15:57:39.116Z,102075.75
2023-04-08T16:00:13.882Z,102063.19
2023-04-08T16:02:42.244Z,102063.63
2023-04-08T16:05:09.618Z,102065.53
2023-04-08T16:07:37.378Z,102084.53
2023-04-08T16:10:04.742Z,102073.41
2023-04-08T16:12:32.709Z,102072.53
2023-04-08T16:15:00.056Z,102086.41
2023-04-08T16:17:28.075Z,102098.19
2023-04-08T16:19:55.144Z,102075.00
2023-04-08T16:22:22.119Z,102058.09
2023-04-08T16:24:55.294Z,102004.84
2023-04-08T16:27:22.882Z,101982.53
2023-04-08T16:29:50.140Z,102055.75
2023-04-08T16:32:17.047Z,102064.28
2023-04-08T16:34:44.656Z,102078.59
2023-04-08T16:37:13.209Z,102093.09
2023-04-08T16:39:41.899Z,102050.47
2023-04-08T16:42:08.961Z,102092.47
2023-04-08T16:44:35.999Z,102069.72
2023-04-08T16:47:02.926Z,102082.69
2023-04-08T16:49:30.480Z,102081.38
2023-04-08T16:51:57.463Z,102082.34
2023-04-08T16:54:24.363Z,102071.53
2023-04-08T16:56:51.346Z,102082.38
2023-04-08T16:59:18.223Z,102087.31
2023-04-08T17:01:45.208Z,102092.84
2023-04-08T17:04:12.141Z,102116.28
2023-04-08T17:06:41.430Z,102113.94
2023-04-08T17:09:09.117Z,102103.25
2023-04-08T17:11:36.060Z,102090.63
2023-04-08T17:14:03.570Z,102094.97
2023-04-08T17:16:31.145Z,102078.28
2023-04-08T17:18:58.206Z,102086.28
2023-04-08T17:21:26.094Z,102102.00
2023-04-08T17:23:53.250Z,102097.56
2023-04-08T17:26:22.232Z,102108.09
2023-04-08T17:28:49.822Z,102108.66
2023-04-08T17:31:16.829Z,102084.63
2023-04-08T17:33:43.836Z,102096.34
2023-04-08T17:36:11.870Z,102118.22
2023-04-08T17:38:40.099Z,102095.44
2023-04-08T17:41:08.103Z,102118.09
2023-04-08T17:43:35.119Z,102121.53
2023-04-08T17:46:02.177Z,102107.94
2023-04-08T17:48:29.261Z,102093.88
2023-04-08T17:51:04.844Z,102095.44
2023-04-08T17:53:33.454Z,102103.75
2023-04-08T17:56:01.241Z,102100.44
2023-04-08T17:58:28.267Z,102101.38
2023-04-08T18:00:55.308Z,102099.88
2023-04-08T18:03:22.837Z,102121.31
2023-04-08T18:05:50.364Z,102102.44
2023-04-08T18:08:17.313Z,102112.06
2023-04-08T18:10:45.220Z,102128.75
2023-04-08T18:13:15.324Z,102125.28
2023-04-08T18:15:43.268Z,102126.22
2023-04-08T18:18:10.314Z,102137.78
2023-04-08T18:20:37.654Z,102138.81
2023-04-08T18:23:04.952Z,102124.00
2023-04-08T18:25:32.594Z,102135.22
2023-04-08T18:27:59.699Z,102143.00
2023-04-08T18:30:26.899Z,102135.09
2023-04-08T18:32:53.935Z,102130.16
2023-04-08T18:35:21.183Z,102145.84
2023-04-08T18:37:48.283Z,102140.34
2023-04-08T18:40:15.486Z,102167.50
2023-04-08T18:42:42.465Z,102162.94
2023-04-08T18:45:09.947Z,102159.94
2023-04-08T18:47:37.849Z,102167.34
2023-04-08T18:50:06.474Z,102174.53
2023-04-08T18:52:33.445Z,102157.81
2023-04-08T18:55:01.213Z,102171.78
2023-04-08T18:57:28.446Z,102185.78
2023-04-08T18:59:55.460Z,102174.09
2023-04-08T19:02:22.853Z,102173.91
2023-04-08T19:04:49.970Z,102168.00
2023-04-08T19:07:17.770Z,102164.28
2023-04-08T19:09:44.807Z,102176.22
2023-04-08T19:12:11.750Z,102167.91
2023-04-08T19:14:39.498Z,102165.34
2023-04-08T19:17:06.663Z,102163.38
2023-04-08T19:19:33.554Z,102175.59
2023-04-08T19:22:02.732Z,102188.81
2023-04-08T19:24:29.644Z,102174.28
2023-04-08T19:26:56.611Z,102196.66
2023-04-08T19:29:24.377Z,102165.47
2023-04-08T19:31:51.261Z,102182.88
2023-04-08T19:34:18.185Z,102191.03
2023-04-08T19:36:45.508Z,102184.94
2023-04-08T19:39:12.456Z,102191.97
2023-04-08T19:41:39.395Z,102189.75
2023-04-08T19:44:06.698Z,102172.88
2023-04-08T19:46:33.913Z,102183.00
2023-04-08T19:49:00.919Z,102191.72
2023-04-08T19:51:29.173Z,102202.47
2023-04-08T19:53:56.330Z,102184.03
2023-04-08T19:56:23.344Z,102189.09
2023-04-08T19:58:50.445Z,102172.41
2023-04-08T20:01:18.160Z,102177.94
2023-04-08T20:03:50.258Z,102176.06
2023-04-08T20:06:17.965Z,102178.00
2023-04-08T20:08:45.692Z,102180.03
2023-04-08T20:11:13.060Z,102192.25
2023-04-08T20:13:40.093Z,102183.31
2023-04-08T20:16:07.535Z,102180.56
2023-04-08T20:18:34.719Z,102202.19
2023-04-08T20:21:01.668Z,102183.72
2023-04-08T20:23:28.646Z,102195.88
2023-04-08T20:25:56.572Z,102188.25
2023-04-08T20:28:23.719Z,102191.09
2023-04-08T20:30:51.634Z,102192.31
2023-04-08T20:33:19.158Z,102191.19
2023-04-08T20:35:46.782Z,102188.81
2023-04-08T20:38:14.610Z,102174.72
2023-04-08T20:40:45.144Z,102177.44
2023-04-08T20:43:12.443Z,102181.75
2023-04-08T20:45:39.412Z,102178.16
2023-04-08T20:48:07.453Z,102191.56
2023-04-08T20:50:34.757Z,102187.25
2023-04-08T20:53:01.768Z,102182.28
2023-04-08T20:55:28.842Z,102186.31
2023-04-08T20:57:55.804Z,102184.81
2023-04-08T21:00:22.761Z,102178.56
2023-04-08T21:02:50.812Z,102187.94
2023-04-08T21:05:17.969Z,102192.31
2023-04-08T21:07:45.017Z,102186.97
2023-04-08T21:10:14.096Z,102196.53
2023-04-08T21:12:41.148Z,102184.09
2023-04-08T21:15:08.850Z,102194.09
2023-04-08T21:17:35.906Z,102186.88
2023-04-08T21:20:04.356Z,102195.22
2023-04-08T21:22:32.211Z,102201.50
2023-04-08T21:24:59.163Z,102202.03
2023-04-08T21:27:26.159Z,102183.78
2023-04-08T21:29:53.340Z,102201.34
2023-04-08T21:32:20.426Z,102174.28
2023-04-08T21:34:47.568Z,102190.63
2023-04-08T21:37:14.508Z,102204.22
2023-04-08T21:39:41.458Z,102178.44
2023-04-08T21:42:08.333Z,102197.50
2023-04-08T21:44:35.293Z,102191.31
2023-04-08T21:47:02.364Z,102190.78
2023-04-08T21:49:32.352Z,102193.88
2023-04-08T21:51:59.301Z,102207.56
2023-04-08T21:54:26.268Z,102188.78
2023-04-08T21:56:53.268Z,102187.06
2023-04-08T21:59:20.529Z,102185.28
2023-04-08T22:01:47.700Z,102192.66
2023-04-08T22:04:14.871Z,102189.38
2023-04-08T22:06:42.238Z,102188.47
2023-04-08T22:09:09.129Z,102194.50
2023-04-08T22:11:36.058Z,102180.88
2023-04-08T22:14:02.947Z,102201.72
2023-04-08T22:16:29.915Z,102187.78
2023-04-08T22:18:57.113Z,102190.56
2023-04-08T22:21:24.897Z,102192.16
2023-04-08T22:23:54.727Z,102195.00
2023-04-08T22:26:21.835Z,102214.06
2023-04-08T22:28:48.798Z,102200.03
2023-04-08T22:31:16.849Z,102206.69
2023-04-08T22:33:43.871Z,102209.69
2023-04-08T22:36:10.811Z,102187.03
2023-04-08T22:38:37.885Z,102187.34
2023-04-08T22:41:04.946Z,102170.63
2023-04-08T22:43:31.922Z,102180.19
2023-04-08T22:45:59.000Z,102187.00
2023-04-08T22:48:25.906Z,102177.00
2023-04-08T22:50:52.901Z,102178.53
2023-04-08T22:53:20.046Z,102176.00
2023-04-08T22:55:46.982Z,102179.31
2023-04-08T22:58:13.909Z,102173.38
2023-04-08T23:00:41.439Z,102188.91
2023-04-08T23:03:08.527Z,102189.63
2023-04-08T23:05:35.554Z,102178.19
2023-04-08T23:08:02.721Z,102142.91
2023-04-08T23:10:29.677Z,102185.63
2023-04-08T23:12:56.604Z,102160.88
2023-04-08T23:15:23.797Z,102216.16
2023-04-08T23:17:50.835Z,102129.94
2023-04-08T23:20:17.882Z,102187.41
2023-04-08T23:22:44.911Z,102188.81
2023-04-08T23:25:12.033Z,102195.56
2023-04-08T23:27:39.105Z,102194.91
2023-04-08T23:30:06.907Z,102168.63
2023-04-08T23:32:35.415Z,102196.97
2023-04-08T23:35:03.453Z,102198.16
2023-04-08T23:37:32.962Z,102171.41
2023-04-08T23:39:59.975Z,102162.91
2023-04-08T23:42:27.293Z,102166.72
2023-04-08T23:44:55.276Z,102182.06
2023-04-08T23:47:22.478Z,102203.13
2023-04-08T23:49:52.350Z,102172.56
2023-04-08T23:52:22.204Z,102187.34
2023-04-08T23:54:52.597Z,102202.25
2023-04-08T23:57:20.606Z,102183.50
2023-04-08T23:59:47.836Z,102161.97
